sensor_id;sensor_type;location;lat;lon;timestamp;pressure;altitude;pressure_sealevel;temperature;humidity
77537;BME280;67783;51.656;16.106;2023-06-22T00:02:31;101955.34;;;25.20;59.13
77537;BME280;67783;51.656;16.106;2023-06-22T00:05:33;101963.06;;;25.17;59.57
77537;BME280;67783;51.656;16.106;2023-06-22T00:08:38;101966.14;;;25.14;61.90
77537;BME280;67783;51.656;16.106;2023-06-22T00:11:40;101968.22;;;25.12;59.58
77537;BME280;67783;51.656;16.106;2023-06-22T00:14:41;101963.42;;;25.06;60.38
77537;BME280;67783;51.656;16.106;2023-06-22T00:17:43;101967.55;;;25.02;59.68
77537;BME280;67783;51.656;16.106;2023-06-22T00:20:44;101962.78;;;24.96;60.28
77537;BME280;67783;51.656;16.106;2023-06-22T00:23:47;101977.52;;;24.95;59.91
77537;BME280;67783;51.656;16.106;2023-06-22T00:26:49;101972.38;;;24.92;60.28
77537;BME280;67783;51.656;16.106;2023-06-22T00:29:53;101973.07;;;24.86;62.77
77537;BME280;67783;51.656;16.106;2023-06-22T00:32:55;101958.16;;;24.72;60.29
77537;BME280;67783;51.656;16.106;2023-06-22T00:35:57;101985.39;;;24.81;61.05
77537;BME280;67783;51.656;16.106;2023-06-22T00:38:58;101986.44;;;24.80;60.33
77537;BME280;67783;51.656;16.106;2023-06-22T00:42:00;101987.98;;;24.75;60.82
77537;BME280;67783;51.656;16.106;2023-06-22T00:45:02;101994.32;;;24.75;60.42
77537;BME280;67783;51.656;16.106;2023-06-22T00:48:05;101992.95;;;24.71;60.72
77537;BME280;67783;51.656;16.106;2023-06-22T00:51:09;102001.50;;;24.68;63.02
77537;BME280;67783;51.656;16.106;2023-06-22T00:54:11;102000.84;;;24.66;60.70
77537;BME280;67783;51.656;16.106;2023-06-22T00:57:15;101996.89;;;24.61;61.41
77537;BME280;67783;51.656;16.106;2023-06-22T01:00:19;102005.98;;;24.61;60.80
77537;BME280;67783;51.656;16.106;2023-06-22T01:03:21;102006.68;;;24.55;61.22
77537;BME280;67783;51.656;16.106;2023-06-22T01:06:35;102017.95;;;24.52;63.94
77537;BME280;67783;51.656;16.106;2023-06-22T01:09:47;102011.81;;;24.50;61.24
77537;BME280;67783;51.656;16.106;2023-06-22T01:13:02;102020.38;;;24.47;61.49
77537;BME280;67783;51.656;16.106;2023-06-22T01:19:41;102018.66;;;24.38;63.38
77537;BME280;67783;51.656;16.106;2023-06-22T01:26:05;102018.80;;;24.28;61.76
77537;BME280;67783;51.656;16.106;2023-06-22T01:29:11;102021.03;;;24.25;62.79
77537;BME280;67783;51.656;16.106;2023-06-22T01:32:14;102018.29;;;24.25;61.67
77537;BME280;67783;51.656;16.106;2023-06-22T01:35:18;102020.67;;;24.20;62.06
77537;BME280;67783;51.656;16.106;2023-06-22T01:38:32;102015.53;;;24.17;64.15
77537;BME280;67783;51.656;16.106;2023-06-22T01:41:37;102021.02;;;24.17;61.88
77537;BME280;67783;51.656;16.106;2023-06-22T01:44:39;102031.43;;;24.13;62.30
77537;BME280;67783;51.656;16.106;2023-06-22T01:47:41;102031.27;;;24.15;61.91
77537;BME280;67783;51.656;16.106;2023-06-22T01:50:43;102038.08;;;24.11;62.21
77537;BME280;67783;51.656;16.106;2023-06-22T01:53:49;102040.15;;;24.09;64.27
77537;BME280;67783;51.656;16.106;2023-06-22T01:56:51;102034.67;;;24.09;62.12
77537;BME280;67783;51.656;16.106;2023-06-22T02:00:03;102037.04;;;24.04;62.87
77537;BME280;67783;51.656;16.106;2023-06-22T02:03:19;102038.41;;;24.00;63.93
77537;BME280;67783;51.656;16.106;2023-06-22T02:06:31;102033.95;;;23.99;62.32
77537;BME280;67783;51.656;16.106;2023-06-22T02:09:38;102033.76;;;23.92;62.55
77537;BME280;67783;51.656;16.106;2023-06-22T02:12:44;102041.61;;;23.87;64.70
77537;BME280;67783;51.656;16.106;2023-06-22T02:15:47;102034.26;;;23.87;62.60
77537;BME280;67783;51.656;16.106;2023-06-22T02:18:51;102037.34;;;23.84;63.14
77537;BME280;67783;51.656;16.106;2023-06-22T02:21:53;102037.34;;;23.84;62.57
77537;BME280;67783;51.656;16.106;2023-06-22T02:24:54;102039.36;;;23.82;62.87
77537;BME280;67783;51.656;16.106;2023-06-22T02:28:03;102038.70;;;23.80;64.32
77537;BME280;67783;51.656;16.106;2023-06-22T02:31:05;102037.12;;;23.78;62.83
77537;BME280;67783;51.656;16.106;2023-06-22T02:34:06;102041.20;;;23.74;63.38
77537;BME280;67783;51.656;16.106;2023-06-22T02:37:08;102044.80;;;23.74;62.75
77537;BME280;67783;51.656;16.106;2023-06-22T02:40:13;102039.67;;;23.71;63.08
77537;BME280;67783;51.656;16.106;2023-06-22T02:43:23;102040.69;;;23.70;64.99
77537;BME280;67783;51.656;16.106;2023-06-22T02:46:25;102036.93;;;23.71;62.92
77537;BME280;67783;51.656;16.106;2023-06-22T02:49:27;102029.88;;;23.69;63.59
77537;BME280;67783;51.656;16.106;2023-06-22T02:52:29;102036.07;;;23.71;62.92
77537;BME280;67783;51.656;16.106;2023-06-22T02:55:31;102035.37;;;23.69;63.25
77537;BME280;67783;51.656;16.106;2023-06-22T02:58:32;102032.13;;;23.73;62.88
77537;BME280;67783;51.656;16.106;2023-06-22T03:01:40;102027.70;;;23.72;63.07
77537;BME280;67783;51.656;16.106;2023-06-22T03:04:45;102027.70;;;23.72;64.82
77537;BME280;67783;51.656;16.106;2023-06-22T03:07:50;102029.95;;;23.77;62.97
77537;BME280;67783;51.656;16.106;2023-06-22T03:10:52;102038.84;;;23.79;63.45
77537;BME280;67783;51.656;16.106;2023-06-22T03:13:53;102037.48;;;23.83;62.89
77537;BME280;67783;51.656;16.106;2023-06-22T03:16:55;102045.55;;;23.84;63.22
77537;BME280;67783;51.656;16.106;2023-06-22T03:20:07;102055.64;;;23.84;65.48
77537;BME280;67783;51.656;16.106;2023-06-22T03:23:13;102059.43;;;23.91;63.19
77537;BME280;67783;51.656;16.106;2023-06-22T03:26:18;102054.81;;;23.91;63.61
77537;BME280;67783;51.656;16.106;2023-06-22T03:29:19;102055.34;;;23.95;63.16
77537;BME280;67783;51.656;16.106;2023-06-22T03:32:21;102061.67;;;23.96;63.42
77537;BME280;67783;51.656;16.106;2023-06-22T03:35:26;102070.91;;;23.95;65.26
77537;BME280;67783;51.656;16.106;2023-06-22T03:38:27;102078.82;;;23.98;63.25
77537;BME280;67783;51.656;16.106;2023-06-22T03:41:29;102054.41;;;23.78;63.83
77537;BME280;67783;51.656;16.106;2023-06-22T03:44:30;102076.39;;;23.95;63.24
77537;BME280;67783;51.656;16.106;2023-06-22T03:47:32;102077.09;;;23.97;63.50
77537;BME280;67783;51.656;16.106;2023-06-22T03:50:34;102077.80;;;24.07;63.09
77537;BME280;67783;51.656;16.106;2023-06-22T03:53:36;102079.27;;;24.35;63.23
77537;BME280;67783;51.656;16.106;2023-06-22T03:56:41;102087.90;;;25.45;61.52
77537;BME280;67783;51.656;16.106;2023-06-22T03:59:42;102082.71;;;26.67;59.21
77537;BME280;67783;51.656;16.106;2023-06-22T04:02:44;102086.01;;;27.75;56.49
77537;BME280;67783;51.656;16.106;2023-06-22T04:05:45;102079.30;;;28.64;55.14
77537;BME280;67783;51.656;16.106;2023-06-22T04:08:47;102084.98;;;29.26;53.29
77537;BME280;67783;51.656;16.106;2023-06-22T04:12:02;102092.04;;;29.56;49.93
77537;BME280;67783;51.656;16.106;2023-06-22T04:15:05;102101.44;;;29.34;52.95
77537;BME280;67783;51.656;16.106;2023-06-22T04:18:06;102087.77;;;29.05;53.00
77537;BME280;67783;51.656;16.106;2023-06-22T04:21:08;102092.73;;;28.88;53.92
77537;BME280;67783;51.656;16.106;2023-06-22T04:24:10;102090.29;;;28.78;53.88
77537;BME280;67783;51.656;16.106;2023-06-22T04:27:22;102084.41;;;28.67;52.48
77537;BME280;67783;51.656;16.106;2023-06-22T04:30:24;102091.28;;;28.71;54.14
77537;BME280;67783;51.656;16.106;2023-06-22T04:33:26;102085.76;;;28.71;53.73
77537;BME280;67783;51.656;16.106;2023-06-22T04:36:27;102093.73;;;28.80;53.96
77537;BME280;67783;51.656;16.106;2023-06-22T04:39:36;102100.09;;;28.81;53.55
77537;BME280;67783;51.656;16.106;2023-06-22T04:42:42;102095.27;;;28.68;51.96
77537;BME280;67783;51.656;16.106;2023-06-22T04:45:53;102081.15;;;28.57;53.61
77537;BME280;67783;51.656;16.106;2023-06-22T04:48:55;102099.52;;;28.50;53.65
77537;BME280;67783;51.656;16.106;2023-06-22T04:51:56;102093.81;;;28.51;53.76
77537;BME280;67783;51.656;16.106;2023-06-22T04:54:58;102092.77;;;28.52;53.57
77537;BME280;67783;51.656;16.106;2023-06-22T04:58:03;102095.58;;;28.59;52.88
77537;BME280;67783;51.656;16.106;2023-06-22T05:01:06;102093.16;;;28.49;53.43
77537;BME280;67783;51.656;16.106;2023-06-22T05:04:10;102074.18;;;28.25;53.79
77537;BME280;67783;51.656;16.106;2023-06-22T05:07:11;102081.26;;;28.13;54.15
77537;BME280;67783;51.656;16.106;2023-06-22T05:10:13;102087.52;;;28.07;54.29
77537;BME280;67783;51.656;16.106;2023-06-22T05:13:23;102089.13;;;28.01;54.16
77537;BME280;67783;51.656;16.106;2023-06-22T05:16:27;102084.70;;;27.85;54.59
77537;BME280;67783;51.656;16.106;2023-06-22T05:19:29;102088.77;;;27.75;54.91
77537;BME280;67783;51.656;16.106;2023-06-22T05:22:34;102088.41;;;27.78;54.94
77537;BME280;67783;51.656;16.106;2023-06-22T05:25:35;102092.95;;;27.71;55.05
77537;BME280;67783;51.656;16.106;2023-06-22T05:28:45;102099.89;;;27.67;54.92
77537;BME280;67783;51.656;16.106;2023-06-22T05:31:50;102099.15;;;27.73;55.04
77537;BME280;67783;51.656;16.106;2023-06-22T05:34:51;102094.88;;;27.70;55.09
77537;BME280;67783;51.656;16.106;2023-06-22T05:37:53;102090.70;;;27.74;55.06
77537;BME280;67783;51.656;16.106;2023-06-22T05:40:54;102102.29;;;27.70;55.14
77537;BME280;67783;51.656;16.106;2023-06-22T05:44:04;102095.80;;;27.63;55.05
77537;BME280;67783;51.656;16.106;2023-06-22T05:47:06;102094.59;;;27.65;55.26
77537;BME280;67783;51.656;16.106;2023-06-22T05:50:08;102099.15;;;27.73;54.97
77537;BME280;67783;51.656;16.106;2023-06-22T05:53:10;102116.93;;;27.70;54.82
77537;BME280;67783;51.656;16.106;2023-06-22T05:56:11;102117.13;;;27.46;54.94
77537;BME280;67783;51.656;16.106;2023-06-22T05:59:13;102122.17;;;27.42;54.77
77537;BME280;67783;51.656;16.106;2023-06-22T06:02:15;102121.59;;;27.32;54.68
77537;BME280;67783;51.656;16.106;2023-06-22T06:05:19;102137.82;;;27.27;54.33
77537;BME280;67783;51.656;16.106;2023-06-22T06:08:20;102137.00;;;27.41;54.37
77537;BME280;67783;51.656;16.106;2023-06-22T06:11:22;102131.19;;;27.36;54.20
77537;BME280;67783;51.656;16.106;2023-06-22T06:14:24;102139.07;;;27.39;54.38
77537;BME280;67783;51.656;16.106;2023-06-22T06:17:26;102151.13;;;27.38;53.65
77537;BME280;67783;51.656;16.106;2023-06-22T06:20:27;102140.41;;;27.43;53.37
77537;BME280;67783;51.656;16.106;2023-06-22T06:23:29;102151.34;;;27.37;53.55
77537;BME280;67783;51.656;16.106;2023-06-22T06:26:34;102153.88;;;27.38;52.60
77537;BME280;67783;51.656;16.106;2023-06-22T06:29:36;102161.29;;;27.38;53.45
77537;BME280;67783;51.656;16.106;2023-06-22T06:32:39;102154.91;;;27.37;53.37
77537;BME280;67783;51.656;16.106;2023-06-22T06:35:41;102155.38;;;27.49;53.40
77537;BME280;67783;51.656;16.106;2023-06-22T06:38:42;102164.04;;;27.61;52.85
77537;BME280;67783;51.656;16.106;2023-06-22T06:41:54;102173.94;;;27.70;51.24
77537;BME280;67783;51.656;16.106;2023-06-22T06:44:55;102172.73;;;27.87;52.29
77537;BME280;67783;51.656;16.106;2023-06-22T06:47:57;102166.70;;;27.83;51.70
77537;BME280;67783;51.656;16.106;2023-06-22T06:50:58;102171.55;;;27.96;52.26
77537;BME280;67783;51.656;16.106;2023-06-22T06:54:01;102180.51;;;27.98;51.91
77537;BME280;67783;51.656;16.106;2023-06-22T06:57:15;102181.16;;;28.00;50.91
77537;BME280;67783;51.656;16.106;2023-06-22T07:00:17;102170.60;;;28.04;52.03
77537;BME280;67783;51.656;16.106;2023-06-22T07:03:19;102161.50;;;28.03;51.41
77537;BME280;67783;51.656;16.106;2023-06-22T07:06:21;102160.36;;;28.12;51.75
77537;BME280;67783;51.656;16.106;2023-06-22T07:09:22;102161.76;;;28.08;51.20
77537;BME280;67783;51.656;16.106;2023-06-22T07:12:24;102168.84;;;28.11;51.64
77537;BME280;67783;51.656;16.106;2023-06-22T07:15:25;102153.23;;;28.03;51.49
77537;BME280;67783;51.656;16.106;2023-06-22T07:18:30;102147.99;;;27.93;50.98
77537;BME280;67783;51.656;16.106;2023-06-22T07:21:31;102154.26;;;28.02;51.78
77537;BME280;67783;51.656;16.106;2023-06-22T07:24:33;102142.13;;;28.11;51.63
77537;BME280;67783;51.656;16.106;2023-06-22T07:27:39;102143.06;;;28.18;51.45
77537;BME280;67783;51.656;16.106;2023-06-22T07:30:43;102145.54;;;28.13;51.48
77537;BME280;67783;51.656;16.106;2023-06-22T07:33:51;102149.54;;;28.11;51.39
77537;BME280;67783;51.656;16.106;2023-06-22T07:36:52;102142.02;;;28.19;51.40
77537;BME280;67783;51.656;16.106;2023-06-22T07:39:55;102142.39;;;28.16;51.51
77537;BME280;67783;51.656;16.106;2023-06-22T07:42:59;102139.91;;;28.21;51.44
77537;BME280;67783;51.656;16.106;2023-06-22T07:46:01;102147.22;;;28.29;51.27
77537;BME280;67783;51.656;16.106;2023-06-22T07:49:11;102142.56;;;28.29;50.30
77537;BME280;67783;51.656;16.106;2023-06-22T07:52:13;102137.61;;;28.39;51.10
77537;BME280;67783;51.656;16.106;2023-06-22T07:55:14;102135.77;;;28.47;50.89
77537;BME280;67783;51.656;16.106;2023-06-22T07:58:16;102121.21;;;28.53;50.72
77537;BME280;67783;51.656;16.106;2023-06-22T08:01:21;102119.77;;;28.57;50.72
77537;BME280;67783;51.656;16.106;2023-06-22T08:04:31;102107.20;;;28.54;50.05
77537;BME280;67783;51.656;16.106;2023-06-22T08:07:36;102114.13;;;28.65;50.73
77537;BME280;67783;51.656;16.106;2023-06-22T08:10:42;102119.44;;;28.66;50.05
77537;BME280;67783;51.656;16.106;2023-06-22T08:13:44;102107.47;;;28.74;50.10
77537;BME280;67783;51.656;16.106;2023-06-22T08:16:45;102105.09;;;28.71;50.17
77537;BME280;67783;51.656;16.106;2023-06-22T08:19:52;102090.73;;;28.61;49.24
77537;BME280;67783;51.656;16.106;2023-06-22T08:22:55;102087.02;;;28.54;50.32
77537;BME280;67783;51.656;16.106;2023-06-22T08:26:01;102080.07;;;28.58;50.16
77537;BME280;67783;51.656;16.106;2023-06-22T08:29:03;102088.74;;;28.69;50.03
77537;BME280;67783;51.656;16.106;2023-06-22T08:32:05;102093.91;;;28.79;49.73
77537;BME280;67783;51.656;16.106;2023-06-22T08:35:12;102105.64;;;28.66;47.04
77537;BME280;67783;51.656;16.106;2023-06-22T08:38:14;102104.95;;;28.79;48.68
77537;BME280;67783;51.656;16.106;2023-06-22T08:41:19;102108.24;;;28.89;47.25
77537;BME280;67783;51.656;16.106;2023-06-22T08:44:21;102105.21;;;29.05;47.80
77537;BME280;67783;51.656;16.106;2023-06-22T08:47:22;102107.49;;;29.23;47.03
77537;BME280;67783;51.656;16.106;2023-06-22T08:50:33;102101.99;;;29.51;44.57
77537;BME280;67783;51.656;16.106;2023-06-22T08:53:34;102096.39;;;29.72;46.17
77537;BME280;67783;51.656;16.106;2023-06-22T08:56:37;102100.65;;;29.74;45.48
77537;BME280;67783;51.656;16.106;2023-06-22T08:59:39;102084.67;;;29.70;45.40
77537;BME280;67783;51.656;16.106;2023-06-22T09:02:41;102108.75;;;29.76;44.88
77537;BME280;67783;51.656;16.106;2023-06-22T09:05:53;102103.35;;;29.96;42.88
77537;BME280;67783;51.656;16.106;2023-06-22T09:08:55;102103.85;;;30.12;44.85
77537;BME280;67783;51.656;16.106;2023-06-22T09:11:57;102108.15;;;30.21;42.81
77537;BME280;67783;51.656;16.106;2023-06-22T09:15:00;102109.89;;;30.36;43.75
77537;BME280;67783;51.656;16.106;2023-06-22T09:18:02;102101.66;;;30.49;43.62
77537;BME280;67783;51.656;16.106;2023-06-22T09:21:14;102089.35;;;30.58;41.04
77537;BME280;67783;51.656;16.106;2023-06-22T09:24:16;102083.18;;;30.69;43.48
77537;BME280;67783;51.656;16.106;2023-06-22T09:27:18;102090.43;;;30.70;42.15
77537;BME280;67783;51.656;16.106;2023-06-22T09:30:20;102083.38;;;30.61;43.02
77537;BME280;67783;51.656;16.106;2023-06-22T09:33:21;102075.70;;;30.50;42.68
77537;BME280;67783;51.656;16.106;2023-06-22T09:36:23;102076.79;;;30.55;43.76
77537;BME280;67783;51.656;16.106;2023-06-22T09:39:25;102073.81;;;30.63;43.20
77537;BME280;67783;51.656;16.106;2023-06-22T09:42:29;102073.39;;;30.66;40.72
77537;BME280;67783;51.656;16.106;2023-06-22T09:45:31;102072.50;;;30.53;42.13
77537;BME280;67783;51.656;16.106;2023-06-22T09:48:32;102076.48;;;30.31;41.88
77537;BME280;67783;51.656;16.106;2023-06-22T09:51:34;102058.11;;;30.10;42.49
77537;BME280;67783;51.656;16.106;2023-06-22T09:54:35;102054.93;;;30.19;42.76
77537;BME280;67783;51.656;16.106;2023-06-22T09:57:37;102063.93;;;30.35;42.52
77537;BME280;67783;51.656;16.106;2023-06-22T10:00:38;102065.23;;;30.39;42.12
77537;BME280;67783;51.656;16.106;2023-06-22T10:03:44;102050.73;;;30.37;39.58
77537;BME280;67783;51.656;16.106;2023-06-22T10:06:46;102056.49;;;30.42;41.07
77537;BME280;67783;51.656;16.106;2023-06-22T10:09:47;102055.20;;;30.31;40.79
77537;BME280;67783;51.656;16.106;2023-06-22T10:12:57;102046.04;;;30.31;40.99
77537;BME280;67783;51.656;16.106;2023-06-22T10:15:59;102043.48;;;30.36;41.47
77537;BME280;67783;51.656;16.106;2023-06-22T10:19:04;102051.53;;;30.17;38.82
77537;BME280;67783;51.656;16.106;2023-06-22T10:22:06;102046.63;;;30.19;40.77
77537;BME280;67783;51.656;16.106;2023-06-22T10:25:08;102038.36;;;30.33;40.33
77537;BME280;67783;51.656;16.106;2023-06-22T10:28:10;102027.36;;;30.52;40.53
77537;BME280;67783;51.656;16.106;2023-06-22T10:31:13;102026.10;;;30.55;39.89
77537;BME280;67783;51.656;16.106;2023-06-22T10:34:25;102015.41;;;30.39;37.77
77537;BME280;67783;51.656;16.106;2023-06-22T10:37:26;102031.64;;;30.55;39.99
77537;BME280;67783;51.656;16.106;2023-06-22T10:40:28;102036.98;;;30.63;39.35
77537;BME280;67783;51.656;16.106;2023-06-22T10:43:30;102029.09;;;30.73;39.95
77537;BME280;67783;51.656;16.106;2023-06-22T10:46:31;102035.45;;;30.60;38.81
77537;BME280;67783;51.656;16.106;2023-06-22T10:49:33;102034.43;;;30.68;38.54
77537;BME280;67783;51.656;16.106;2023-06-22T10:52:34;102023.12;;;30.69;39.28
77537;BME280;67783;51.656;16.106;2023-06-22T10:55:39;102033.80;;;30.73;37.54
77537;BME280;67783;51.656;16.106;2023-06-22T10:58:41;102026.13;;;30.68;38.29
77537;BME280;67783;51.656;16.106;2023-06-22T11:01:42;102026.13;;;30.68;37.88
77537;BME280;67783;51.656;16.106;2023-06-22T11:04:44;102022.49;;;30.74;38.74
77537;BME280;67783;51.656;16.106;2023-06-22T11:07:47;102019.31;;;30.84;38.54
77537;BME280;67783;51.656;16.106;2023-06-22T11:11:00;102032.52;;;30.88;36.42
77537;BME280;67783;51.656;16.106;2023-06-22T11:14:01;102018.89;;;30.93;37.76
77537;BME280;67783;51.656;16.106;2023-06-22T11:17:03;102015.89;;;30.95;37.65
77537;BME280;67783;51.656;16.106;2023-06-22T11:20:06;102014.64;;;31.04;37.04
77537;BME280;67783;51.656;16.106;2023-06-22T11:23:12;102003.14;;;31.00;37.77
77537;BME280;67783;51.656;16.106;2023-06-22T11:26:20;102007.82;;;31.13;36.99
77537;BME280;67783;51.656;16.106;2023-06-22T11:29:22;102001.16;;;31.27;38.34
77537;BME280;67783;51.656;16.106;2023-06-22T11:32:24;102000.10;;;31.35;37.43
77537;BME280;67783;51.656;16.106;2023-06-22T11:35:26;101993.64;;;31.47;37.81
77537;BME280;67783;51.656;16.106;2023-06-22T11:38:27;101990.45;;;31.57;37.31
77537;BME280;67783;51.656;16.106;2023-06-22T11:41:29;101999.79;;;31.69;37.25
77537;BME280;67783;51.656;16.106;2023-06-22T11:44:31;101997.63;;;31.78;37.14
77537;BME280;67783;51.656;16.106;2023-06-22T11:47:36;101994.85;;;31.78;34.62
77537;BME280;67783;51.656;16.106;2023-06-22T11:50:37;101990.16;;;31.78;35.90
77537;BME280;67783;51.656;16.106;2023-06-22T11:53:39;101978.41;;;31.83;36.45
77537;BME280;67783;51.656;16.106;2023-06-22T11:56:40;101979.45;;;31.88;36.96
77537;BME280;67783;51.656;16.106;2023-06-22T11:59:42;101974.51;;;31.97;37.07
77537;BME280;67783;51.656;16.106;2023-06-22T12:02:46;101968.05;;;32.03;36.78
77537;BME280;67783;51.656;16.106;2023-06-22T12:05:50;101977.63;;;32.07;36.82
77537;BME280;67783;51.656;16.106;2023-06-22T12:08:53;101977.19;;;32.17;34.86
77537;BME280;67783;51.656;16.106;2023-06-22T12:11:54;101965.17;;;32.23;36.06
77537;BME280;67783;51.656;16.106;2023-06-22T12:14:56;101961.55;;;32.22;35.48
77537;BME280;67783;51.656;16.106;2023-06-22T12:17:58;101964.88;;;32.37;36.32
77537;BME280;67783;51.656;16.106;2023-06-22T12:20:59;101962.83;;;32.51;35.94
77537;BME280;67783;51.656;16.106;2023-06-22T12:24:01;101963.39;;;32.66;34.97
77537;BME280;67783;51.656;16.106;2023-06-22T12:27:03;101957.55;;;32.74;35.93
77537;BME280;67783;51.656;16.106;2023-06-22T12:30:08;101950.63;;;32.83;33.64
77537;BME280;67783;51.656;16.106;2023-06-22T12:33:10;101931.48;;;32.75;35.32
77537;BME280;67783;51.656;16.106;2023-06-22T12:36:12;101943.92;;;32.91;34.87
77537;BME280;67783;51.656;16.106;2023-06-22T12:39:13;101946.63;;;32.98;34.30
77537;BME280;67783;51.656;16.106;2023-06-22T12:42:17;101948.23;;;32.87;34.21
77537;BME280;67783;51.656;16.106;2023-06-22T12:45:28;101943.97;;;32.84;32.61
77537;BME280;67783;51.656;16.106;2023-06-22T12:48:34;101939.31;;;33.03;34.23
77537;BME280;67783;51.656;16.106;2023-06-22T12:51:44;101938.95;;;33.18;34.92
77537;BME280;67783;51.656;16.106;2023-06-22T12:54:54;101936.50;;;33.28;31.15
77537;BME280;67783;51.656;16.106;2023-06-22T12:57:55;101937.04;;;33.36;33.84
77537;BME280;67783;51.656;16.106;2023-06-22T13:00:57;101922.80;;;33.08;32.43
77537;BME280;67783;51.656;16.106;2023-06-22T13:03:59;101916.23;;;33.03;33.44
77537;BME280;67783;51.656;16.106;2023-06-22T13:07:01;101920.16;;;32.95;34.13
77537;BME280;67783;51.656;16.106;2023-06-22T13:10:03;101919.91;;;32.78;32.73
77537;BME280;67783;51.656;16.106;2023-06-22T13:13:05;101921.81;;;32.53;33.22
77537;BME280;67783;51.656;16.106;2023-06-22T13:16:10;101915.48;;;32.46;31.47
77537;BME280;67783;51.656;16.106;2023-06-22T13:19:12;101916.44;;;32.33;32.97
77537;BME280;67783;51.656;16.106;2023-06-22T13:25:37;101915.15;;;31.98;31.49
77537;BME280;67783;51.656;16.106;2023-06-22T13:28:38;101912.63;;;31.96;33.41
77537;BME280;67783;51.656;16.106;2023-06-22T13:31:40;101910.51;;;31.92;33.00
77537;BME280;67783;51.656;16.106;2023-06-22T13:34:42;101911.76;;;31.96;33.49
77537;BME280;67783;51.656;16.106;2023-06-22T13:37:44;101909.45;;;31.93;33.49
77537;BME280;67783;51.656;16.106;2023-06-22T13:40:46;101910.77;;;31.84;33.33
77537;BME280;67783;51.656;16.106;2023-06-22T13:43:49;101902.54;;;31.64;33.69
77537;BME280;67783;51.656;16.106;2023-06-22T13:46:53;101900.27;;;31.54;32.89
77537;BME280;67783;51.656;16.106;2023-06-22T13:49:55;101893.42;;;31.57;33.85
77537;BME280;67783;51.656;16.106;2023-06-22T13:52:58;101886.80;;;31.58;33.85
77537;BME280;67783;51.656;16.106;2023-06-22T13:56:00;101881.81;;;31.73;33.96
77537;BME280;67783;51.656;16.106;2023-06-22T13:59:01;101880.02;;;31.85;33.40
77537;BME280;67783;51.656;16.106;2023-06-22T14:02:03;101874.84;;;31.95;33.56
77537;BME280;67783;51.656;16.106;2023-06-22T14:05:05;101872.20;;;32.07;33.49
77537;BME280;67783;51.656;16.106;2023-06-22T14:08:09;101871.80;;;32.03;32.52
77537;BME280;67783;51.656;16.106;2023-06-22T14:11:11;101864.55;;;32.09;33.53
77537;BME280;67783;51.656;16.106;2023-06-22T14:14:13;101873.45;;;32.18;33.33
77537;BME280;67783;51.656;16.106;2023-06-22T14:17:14;101855.80;;;32.30;33.44
77537;BME280;67783;51.656;16.106;2023-06-22T14:20:16;101853.77;;;32.19;32.12
77537;BME280;67783;51.656;16.106;2023-06-22T14:23:17;101863.73;;;32.27;32.79
77537;BME280;67783;51.656;16.106;2023-06-22T14:26:19;101862.95;;;32.20;32.25
77537;BME280;67783;51.656;16.106;2023-06-22T14:29:26;101854.84;;;32.18;31.91
77537;BME280;67783;51.656;16.106;2023-06-22T14:32:28;101853.77;;;32.19;32.92
77537;BME280;67783;51.656;16.106;2023-06-22T14:35:33;101851.46;;;32.16;33.35
77537;BME280;67783;51.656;16.106;2023-06-22T14:38:34;101854.13;;;32.29;33.35
77537;BME280;67783;51.656;16.106;2023-06-22T14:43:57;101858.53;;;32.37;33.39
77537;BME280;67783;51.656;16.106;2023-06-22T14:46:59;101848.12;;;32.32;33.11
77537;BME280;67783;51.656;16.106;2023-06-22T14:50:00;101855.30;;;32.40;32.91
77537;BME280;67783;51.656;16.106;2023-06-22T14:53:02;101838.32;;;32.30;33.02
77537;BME280;67783;51.656;16.106;2023-06-22T14:56:04;101841.70;;;32.32;33.31
77537;BME280;67783;51.656;16.106;2023-06-22T14:59:05;101844.30;;;32.27;33.01
77537;BME280;67783;51.656;16.106;2023-06-22T15:02:12;101837.97;;;32.20;33.09
77537;BME280;67783;51.656;16.106;2023-06-22T15:05:13;101840.75;;;32.20;33.49
77537;BME280;67783;51.656;16.106;2023-06-22T15:08:15;101829.12;;;32.04;33.09
77537;BME280;67783;51.656;16.106;2023-06-22T15:11:17;101823.74;;;32.10;33.41
77537;BME280;67783;51.656;16.106;2023-06-22T15:14:18;101823.06;;;32.14;33.59
77537;BME280;67783;51.656;16.106;2023-06-22T15:17:19;101814.52;;;32.16;33.25
77537;BME280;67783;51.656;16.106;2023-06-22T15:20:21;101812.90;;;32.01;33.03
77537;BME280;67783;51.656;16.106;2023-06-22T15:23:26;101807.48;;;31.88;32.77
77537;BME280;67783;51.656;16.106;2023-06-22T15:26:29;101794.10;;;31.79;33.73
77537;BME280;67783;51.656;16.106;2023-06-22T15:29:31;101802.30;;;31.67;32.58
77537;BME280;67783;51.656;16.106;2023-06-22T15:32:35;101794.41;;;31.64;32.98
77537;BME280;67783;51.656;16.106;2023-06-22T15:35:36;101795.77;;;31.55;32.99
77537;BME280;67783;51.656;16.106;2023-06-22T15:38:46;101794.52;;;31.44;32.23
77537;BME280;67783;51.656;16.106;2023-06-22T15:41:49;101790.95;;;31.37;33.05
77537;BME280;67783;51.656;16.106;2023-06-22T15:44:50;101786.93;;;31.27;32.45
77537;BME280;67783;51.656;16.106;2023-06-22T15:47:52;101777.29;;;31.36;32.93
77537;BME280;67783;51.656;16.106;2023-06-22T15:50:53;101777.49;;;31.41;32.84
77537;BME280;67783;51.656;16.106;2023-06-22T15:53:55;101765.09;;;31.43;33.00
77537;BME280;67783;51.656;16.106;2023-06-22T15:56:57;101760.05;;;31.34;32.58
77537;BME280;67783;51.656;16.106;2023-06-22T16:00:02;101760.72;;;31.29;33.08